createdAt,value
2019-04-03T00:31:15.948Z,7.24
2019-04-03T00:35:23.130Z,7.15
2019-04-03T00:39:39.857Z,7.09
2019-04-03T00:43:44.913Z,7.08
2019-04-03T00:47:50.620Z,7.17
2019-04-03T00:51:57.675Z,7.17
2019-04-03T01:05:08.657Z,7.14
2019-04-03T01:09:13.903Z,7.03
2019-04-03T01:13:19.207Z,7.06
2019-04-03T01:17:24.631Z,7.05
2019-04-03T01:21:29.722Z,7.03
2019-04-03T01:25:35.056Z,6.98
2019-04-03T01:29:42.238Z,6.97
2019-04-03T01:38:52.599Z,6.79
2019-04-03T01:42:57.747Z,6.69
2019-04-03T01:47:02.953Z,6.75
2019-04-03T01:51:08.196Z,6.66
2019-04-03T01:55:13.340Z,6.61
2019-04-03T01:59:18.409Z,6.68
2019-04-03T02:03:24.046Z,6.61
2019-04-03T02:07:29.568Z,6.63
2019-04-03T02:11:34.737Z,6.60
2019-04-03T02:15:39.943Z,6.62
2019-04-03T02:19:45.193Z,6.53
2019-04-03T02:24:09.561Z,6.43
2019-04-03T02:28:16.528Z,6.39
2019-04-03T02:32:24.130Z,6.36
2019-04-03T02:36:28.499Z,6.43
2019-04-03T02:40:34.289Z,6.44
2019-04-03T02:44:39.612Z,6.50
2019-04-03T02:48:44.748Z,6.58
2019-04-03T02:52:50.175Z,6.40
2019-04-03T02:56:55.764Z,6.34
2019-04-03T03:01:05.250Z,6.40
2019-04-03T03:05:15.005Z,6.39
2019-04-03T03:09:20.215Z,6.48
2019-04-03T03:13:25.526Z,6.52
2019-04-03T03:22:08.185Z,6.34
2019-04-03T03:26:13.589Z,6.60
2019-04-03T03:30:36.263Z,6.49
2019-04-03T03:34:55.965Z,6.53
2019-04-03T03:43:38.321Z,6.61
2019-04-03T03:48:43.640Z,6.67
2019-04-03T03:53:18.137Z,6.51
2019-04-03T03:57:23.919Z,6.63
2019-04-03T04:01:31.487Z,6.56
2019-04-03T04:05:41.794Z,6.53
2019-04-03T04:09:49.593Z,6.68
2019-04-03T04:14:13.401Z,6.66
2019-04-03T04:18:30.074Z,6.63
2019-04-03T04:22:35.292Z,6.56
2019-04-03T04:27:03.197Z,6.82
2019-04-03T04:31:13.624Z,7.07
2019-04-03T04:35:20.647Z,7.30
2019-04-03T04:39:34.844Z,6.93
2019-04-03T04:43:40.021Z,7.23
2019-04-03T04:47:46.468Z,7.64
2019-04-03T04:52:11.468Z,7.61
2019-04-03T04:56:16.663Z,6.86
2019-04-03T05:00:21.917Z,6.51
2019-04-03T05:04:27.141Z,6.48
2019-04-03T05:08:33.554Z,6.53
2019-04-03T05:12:58.547Z,6.39
2019-04-03T05:17:03.692Z,6.23
2019-04-03T05:21:08.916Z,6.37
2019-04-03T05:25:14.177Z,6.13
2019-04-03T05:29:19.651Z,6.15
2019-04-03T05:33:24.783Z,6.25
2019-04-03T05:37:30.598Z,6.17
2019-04-03T05:41:36.126Z,6.08
2019-04-03T05:45:42.246Z,5.98
2019-04-03T05:49:56.108Z,5.97
2019-04-03T05:54:07.999Z,6.03
2019-04-03T05:58:19.004Z,6.00
2019-04-03T06:02:24.230Z,6.16
2019-04-03T06:06:29.391Z,6.03
2019-04-03T06:10:37.453Z,5.99
2019-04-03T06:14:49.602Z,5.82
2019-04-03T06:19:00.771Z,5.83
2019-04-03T06:23:05.843Z,5.77
2019-04-03T06:27:11.548Z,5.93
2019-04-03T06:31:16.756Z,5.81
2019-04-03T06:35:21.994Z,5.95
2019-04-03T06:39:30.441Z,6.16
2019-04-03T06:43:43.576Z,6.14
2019-04-03T06:47:48.703Z,6.03
2019-04-03T06:56:12.497Z,5.98
2019-04-03T07:00:17.948Z,5.88
2019-04-03T07:05:03.425Z,5.80
2019-04-03T07:09:21.754Z,5.99
2019-04-03T07:13:35.673Z,5.89
2019-04-03T07:17:41.413Z,6.11
2019-04-03T07:21:46.822Z,6.13
2019-04-03T07:25:52.232Z,5.97
2019-04-03T07:29:57.390Z,6.15
2019-04-03T07:34:04.197Z,6.17
2019-04-03T07:38:09.314Z,6.19
2019-04-03T07:42:15.036Z,6.51
2019-04-03T07:46:40.005Z,6.68
2019-04-03T07:50:45.227Z,6.28
2019-04-03T07:54:52.913Z,6.18
2019-04-03T07:59:17.987Z,6.20
2019-04-03T08:03:23.279Z,6.41
2019-04-03T08:07:28.731Z,6.57
2019-04-03T08:11:33.907Z,6.82
2019-04-03T08:15:46.675Z,6.71
2019-04-03T08:19:53.674Z,6.82
2019-04-03T08:24:07.420Z,7.04
2019-04-03T08:28:17.118Z,6.86
2019-04-03T08:32:24.217Z,6.83
2019-04-03T08:36:38.756Z,6.84
2019-04-03T08:40:53.175Z,7.21
2019-04-03T08:44:58.272Z,6.92
2019-04-03T08:49:03.826Z,7.11
2019-04-03T08:53:15.780Z,6.96
2019-04-03T17:50:07.501Z,8.50
2019-04-03T19:59:36.791Z,6.67
2019-04-03T22:11:15.107Z,6.16
2019-04-03T22:15:20.527Z,6.10
2019-04-03T22:20:13.062Z,6.21
2019-04-03T23:52:34.792Z,5.52
